sensor_id;sensor_type;location;lat;lon;timestamp;pressure;altitude;pressure_sealevel;temperature;humidity
5380;BME280;2713;42.680;23.310;2024-01-25T00:01:49;95657.78;;;6.21;66.02
5380;BME280;2713;42.680;23.310;2024-01-25T00:04:17;95643.53;;;6.26;66.01
5380;BME280;2713;42.680;23.310;2024-01-25T00:06:44;95649.88;;;6.32;65.85
5380;BME280;2713;42.680;23.310;2024-01-25T00:09:11;95644.44;;;6.35;65.73
5380;BME280;2713;42.680;23.310;2024-01-25T00:11:38;95632.75;;;6.31;65.96
5380;BME280;2713;42.680;23.310;2024-01-25T00:14:04;95617.41;;;6.39;65.69
5380;BME280;2713;42.680;23.310;2024-01-25T00:16:31;95610.13;;;6.15;66.02
5380;BME280;2713;42.680;23.310;2024-01-25T00:18:58;95587.19;;;6.12;66.61
5380;BME280;2713;42.680;23.310;2024-01-25T00:21:26;95573.97;;;6.25;66.84
5380;BME280;2713;42.680;23.310;2024-01-25T00:23:53;95554.63;;;6.38;66.21
5380;BME280;2713;42.680;23.310;2024-01-25T00:26:20;95541.34;;;6.24;66.21
5380;BME280;2713;42.680;23.310;2024-01-25T00:28:46;95537.28;;;6.21;66.17
5380;BME280;2713;42.680;23.310;2024-01-25T00:31:13;95547.50;;;6.13;66.09
5380;BME280;2713;42.680;23.310;2024-01-25T00:33:40;95554.56;;;6.11;66.00
5380;BME280;2713;42.680;23.310;2024-01-25T00:36:08;95561.09;;;5.96;67.33
5380;BME280;2713;42.680;23.310;2024-01-25T00:38:37;95562.22;;;5.93;67.39
5380;BME280;2713;42.680;23.310;2024-01-25T00:41:07;95550.59;;;6.17;66.39
5380;BME280;2713;42.680;23.310;2024-01-25T00:43:35;95542.69;;;6.28;65.44
5380;BME280;2713;42.680;23.310;2024-01-25T00:46:03;95545.75;;;6.04;65.70
5380;BME280;2713;42.680;23.310;2024-01-25T00:48:30;95538.75;;;6.24;64.74
5380;BME280;2713;42.680;23.310;2024-01-25T00:50:57;95532.25;;;6.29;65.23
5380;BME280;2713;42.680;23.310;2024-01-25T00:53:25;95528.44;;;6.24;65.45
5380;BME280;2713;42.680;23.310;2024-01-25T00:55:53;95534.78;;;6.02;65.79
5380;BME280;2713;42.680;23.310;2024-01-25T00:58:21;95539.66;;;6.05;66.69
5380;BME280;2713;42.680;23.310;2024-01-25T01:00:48;95551.19;;;6.01;66.63
5380;BME280;2713;42.680;23.310;2024-01-25T01:03:18;95546.25;;;6.27;66.34
5380;BME280;2713;42.680;23.310;2024-01-25T01:05:45;95537.97;;;6.13;65.68
5380;BME280;2713;42.680;23.310;2024-01-25T01:08:13;95562.84;;;6.15;66.74
5380;BME280;2713;42.680;23.310;2024-01-25T01:10:39;95557.38;;;6.27;66.40
5380;BME280;2713;42.680;23.310;2024-01-25T01:13:07;95553.13;;;6.36;65.32
5380;BME280;2713;42.680;23.310;2024-01-25T01:15:34;95550.81;;;6.42;65.21
5380;BME280;2713;42.680;23.310;2024-01-25T01:18:01;95534.91;;;6.47;64.45
5380;BME280;2713;42.680;23.310;2024-01-25T01:20:28;95525.13;;;6.41;64.45
5380;BME280;2713;42.680;23.310;2024-01-25T01:22:54;95498.22;;;6.43;64.07
5380;BME280;2713;42.680;23.310;2024-01-25T01:25:22;95484.63;;;6.41;65.19
5380;BME280;2713;42.680;23.310;2024-01-25T01:27:48;95483.50;;;6.53;65.21
5380;BME280;2713;42.680;23.310;2024-01-25T01:30:16;95482.28;;;6.48;64.42
5380;BME280;2713;42.680;23.310;2024-01-25T01:32:43;95482.81;;;6.51;65.27
5380;BME280;2713;42.680;23.310;2024-01-25T01:35:10;95483.31;;;6.55;64.81
5380;BME280;2713;42.680;23.310;2024-01-25T01:37:37;95481.84;;;6.52;64.82
5380;BME280;2713;42.680;23.310;2024-01-25T01:40:05;95471.53;;;6.52;65.38
5380;BME280;2713;42.680;23.310;2024-01-25T01:42:31;95469.34;;;6.57;65.32
5380;BME280;2713;42.680;23.310;2024-01-25T01:44:59;95469.06;;;6.51;65.57
5380;BME280;2713;42.680;23.310;2024-01-25T01:47:27;95466.91;;;6.29;67.06
5380;BME280;2713;42.680;23.310;2024-01-25T01:49:54;95463.13;;;6.23;67.10
5380;BME280;2713;42.680;23.310;2024-01-25T01:52:21;95459.28;;;6.27;67.38
5380;BME280;2713;42.680;23.310;2024-01-25T01:54:48;95459.91;;;6.39;67.19
5380;BME280;2713;42.680;23.310;2024-01-25T01:57:15;95467.03;;;6.27;66.62
5380;BME280;2713;42.680;23.310;2024-01-25T01:59:41;95458.28;;;6.38;66.31
5380;BME280;2713;42.680;23.310;2024-01-25T02:02:09;95461.97;;;6.35;65.81
5380;BME280;2713;42.680;23.310;2024-01-25T02:04:37;95462.44;;;6.48;65.60
5380;BME280;2713;42.680;23.310;2024-01-25T02:07:05;95458.22;;;6.47;65.39
5380;BME280;2713;42.680;23.310;2024-01-25T02:09:31;95457.72;;;6.61;65.43
5380;BME280;2713;42.680;23.310;2024-01-25T02:11:59;95457.19;;;6.40;65.18
5380;BME280;2713;42.680;23.310;2024-01-25T02:14:26;95448.78;;;6.38;65.75
5380;BME280;2713;42.680;23.310;2024-01-25T02:16:53;95437.69;;;6.28;66.87
5380;BME280;2713;42.680;23.310;2024-01-25T02:19:20;95452.81;;;6.41;66.37
5380;BME280;2713;42.680;23.310;2024-01-25T02:21:49;95442.22;;;6.44;66.05
5380;BME280;2713;42.680;23.310;2024-01-25T02:24:19;95448.91;;;6.64;65.75
5380;BME280;2713;42.680;23.310;2024-01-25T02:26:45;95441.97;;;6.37;67.36
5380;BME280;2713;42.680;23.310;2024-01-25T02:29:12;95449.47;;;6.40;66.59
5380;BME280;2713;42.680;23.310;2024-01-25T02:34:14;95436.25;;;6.43;66.61
5380;BME280;2713;42.680;23.310;2024-01-25T02:36:41;95429.56;;;6.50;66.57
5380;BME280;2713;42.680;23.310;2024-01-25T02:39:08;95440.28;;;6.73;66.43
5380;BME280;2713;42.680;23.310;2024-01-25T02:41:36;95442.78;;;6.83;65.61
5380;BME280;2713;42.680;23.310;2024-01-25T02:44:03;95438.50;;;6.74;65.97
5380;BME280;2713;42.680;23.310;2024-01-25T02:46:29;95432.34;;;6.75;65.37
5380;BME280;2713;42.680;23.310;2024-01-25T02:48:56;95419.31;;;6.76;65.63
5380;BME280;2713;42.680;23.310;2024-01-25T02:51:23;95412.97;;;6.71;65.91
5380;BME280;2713;42.680;23.310;2024-01-25T02:53:50;95412.22;;;6.78;66.48
5380;BME280;2713;42.680;23.310;2024-01-25T02:56:16;95409.59;;;6.88;66.11
5380;BME280;2713;42.680;23.310;2024-01-25T02:58:44;95416.56;;;6.95;66.29
5380;BME280;2713;42.680;23.310;2024-01-25T03:01:10;95418.31;;;7.30;66.25
5380;BME280;2713;42.680;23.310;2024-01-25T03:03:37;95424.19;;;7.40;65.69
5380;BME280;2713;42.680;23.310;2024-01-25T03:06:06;95429.13;;;7.51;66.02
5380;BME280;2713;42.680;23.310;2024-01-25T03:08:34;95419.19;;;7.64;65.73
5380;BME280;2713;42.680;23.310;2024-01-25T03:11:01;95436.91;;;7.77;66.97
5380;BME280;2713;42.680;23.310;2024-01-25T03:13:30;95431.94;;;7.84;66.72
5380;BME280;2713;42.680;23.310;2024-01-25T03:15:58;95422.22;;;7.86;66.85
5380;BME280;2713;42.680;23.310;2024-01-25T03:18:25;95425.63;;;7.86;67.09
5380;BME280;2713;42.680;23.310;2024-01-25T03:20:51;95417.13;;;7.94;68.16
5380;BME280;2713;42.680;23.310;2024-01-25T03:23:18;95411.50;;;8.06;67.85
5380;BME280;2713;42.680;23.310;2024-01-25T03:25:45;95406.69;;;8.11;68.17
5380;BME280;2713;42.680;23.310;2024-01-25T03:28:12;95406.88;;;8.18;67.91
5380;BME280;2713;42.680;23.310;2024-01-25T03:30:41;95398.09;;;8.11;68.60
5380;BME280;2713;42.680;23.310;2024-01-25T03:33:10;95409.91;;;8.13;67.97
5380;BME280;2713;42.680;23.310;2024-01-25T03:35:36;95415.09;;;8.13;68.07
5380;BME280;2713;42.680;23.310;2024-01-25T03:38:04;95404.78;;;8.22;68.09
5380;BME280;2713;42.680;23.310;2024-01-25T03:40:31;95396.84;;;8.23;67.62
5380;BME280;2713;42.680;23.310;2024-01-25T03:42:58;95378.22;;;8.20;67.48
5380;BME280;2713;42.680;23.310;2024-01-25T03:45:24;95384.28;;;8.28;66.69
5380;BME280;2713;42.680;23.310;2024-01-25T03:47:51;95387.28;;;8.24;67.09
5380;BME280;2713;42.680;23.310;2024-01-25T03:50:19;95391.41;;;8.34;65.92
5380;BME280;2713;42.680;23.310;2024-01-25T03:52:46;95392.22;;;8.35;65.61
5380;BME280;2713;42.680;23.310;2024-01-25T03:55:13;95371.97;;;8.30;65.45
5380;BME280;2713;42.680;23.310;2024-01-25T03:57:39;95364.38;;;8.37;64.84
5380;BME280;2713;42.680;23.310;2024-01-25T04:00:08;95351.59;;;8.35;64.60
5380;BME280;2713;42.680;23.310;2024-01-25T04:02:35;95366.81;;;8.38;65.05
5380;BME280;2713;42.680;23.310;2024-01-25T04:05:02;95354.66;;;8.31;65.16
5380;BME280;2713;42.680;23.310;2024-01-25T04:07:30;95357.69;;;8.26;65.01
5380;BME280;2713;42.680;23.310;2024-01-25T04:09:57;95358.69;;;8.33;65.04
5380;BME280;2713;42.680;23.310;2024-01-25T04:12:24;95350.16;;;8.41;64.84
5380;BME280;2713;42.680;23.310;2024-01-25T04:14:50;95324.72;;;8.28;64.37
5380;BME280;2713;42.680;23.310;2024-01-25T04:17:17;95358.69;;;8.33;64.73
5380;BME280;2713;42.680;23.310;2024-01-25T04:19:44;95358.56;;;8.43;64.00
5380;BME280;2713;42.680;23.310;2024-01-25T04:22:11;95349.00;;;8.43;64.12
5380;BME280;2713;42.680;23.310;2024-01-25T04:24:39;95358.72;;;8.49;63.87
5380;BME280;2713;42.680;23.310;2024-01-25T04:27:05;95350.00;;;8.50;63.78
5380;BME280;2713;42.680;23.310;2024-01-25T04:29:32;95349.50;;;8.47;63.90
5380;BME280;2713;42.680;23.310;2024-01-25T04:31:59;95359.06;;;8.46;64.19
5380;BME280;2713;42.680;23.310;2024-01-25T04:34:26;95357.09;;;8.40;64.46
5380;BME280;2713;42.680;23.310;2024-01-25T04:36:53;95378.41;;;8.26;63.98
5380;BME280;2713;42.680;23.310;2024-01-25T04:39:19;95370.63;;;8.18;63.38
5380;BME280;2713;42.680;23.310;2024-01-25T04:41:48;95374.31;;;8.07;63.62
5380;BME280;2713;42.680;23.310;2024-01-25T04:44:15;95388.31;;;7.97;63.59
5380;BME280;2713;42.680;23.310;2024-01-25T04:46:42;95392.13;;;7.77;63.92
5380;BME280;2713;42.680;23.310;2024-01-25T04:49:09;95388.84;;;7.75;64.67
5380;BME280;2713;42.680;23.310;2024-01-25T04:51:36;95405.19;;;7.75;64.10
5380;BME280;2713;42.680;23.310;2024-01-25T04:54:03;95399.88;;;7.77;64.21
5380;BME280;2713;42.680;23.310;2024-01-25T04:56:29;95387.53;;;7.71;64.09
5380;BME280;2713;42.680;23.310;2024-01-25T04:58:58;95394.56;;;7.52;64.41
5380;BME280;2713;42.680;23.310;2024-01-25T05:01:24;95393.56;;;7.53;64.47
5380;BME280;2713;42.680;23.310;2024-01-25T05:03:51;95406.09;;;7.40;64.48
5380;BME280;2713;42.680;23.310;2024-01-25T05:06:18;95422.50;;;7.49;64.08
5380;BME280;2713;42.680;23.310;2024-01-25T05:08:45;95415.50;;;7.41;64.52
5380;BME280;2713;42.680;23.310;2024-01-25T05:11:11;95415.16;;;7.62;63.83
5380;BME280;2713;42.680;23.310;2024-01-25T05:13:38;95420.63;;;7.59;63.28
5380;BME280;2713;42.680;23.310;2024-01-25T05:16:06;95438.28;;;7.63;62.70
5380;BME280;2713;42.680;23.310;2024-01-25T05:18:33;95442.03;;;7.69;62.16
5380;BME280;2713;42.680;23.310;2024-01-25T05:21:00;95456.75;;;7.69;62.75
5380;BME280;2713;42.680;23.310;2024-01-25T05:23:27;95466.69;;;7.81;61.98
5380;BME280;2713;42.680;23.310;2024-01-25T05:25:53;95472.03;;;7.80;61.90
5380;BME280;2713;42.680;23.310;2024-01-25T05:28:20;95448.53;;;7.73;61.84
5380;BME280;2713;42.680;23.310;2024-01-25T05:33:39;95461.41;;;7.91;62.10
5380;BME280;2713;42.680;23.310;2024-01-25T05:36:06;95467.25;;;7.93;62.01
5380;BME280;2713;42.680;23.310;2024-01-25T05:38:33;95459.28;;;7.86;61.80
5380;BME280;2713;42.680;23.310;2024-01-25T05:41:00;95453.19;;;7.95;61.45
5380;BME280;2713;42.680;23.310;2024-01-25T05:43:26;95473.78;;;8.05;61.10
5380;BME280;2713;42.680;23.310;2024-01-25T05:45:53;95476.22;;;8.06;61.36
5380;BME280;2713;42.680;23.310;2024-01-25T05:48:20;95476.41;;;8.13;61.01
5380;BME280;2713;42.680;23.310;2024-01-25T05:50:49;95477.22;;;8.13;60.33
5380;BME280;2713;42.680;23.310;2024-01-25T05:53:16;95488.28;;;8.24;60.15
5380;BME280;2713;42.680;23.310;2024-01-25T05:55:45;95475.47;;;8.22;59.91
5380;BME280;2713;42.680;23.310;2024-01-25T05:58:12;95464.13;;;8.15;60.21
5380;BME280;2713;42.680;23.310;2024-01-25T06:00:38;95480.50;;;8.24;60.62
5380;BME280;2713;42.680;23.310;2024-01-25T06:03:05;95468.38;;;8.24;60.40
5380;BME280;2713;42.680;23.310;2024-01-25T06:05:32;95489.22;;;8.14;61.11
5380;BME280;2713;42.680;23.310;2024-01-25T06:08:00;95483.69;;;8.09;60.75
5380;BME280;2713;42.680;23.310;2024-01-25T06:10:27;95478.94;;;8.05;61.03
5380;BME280;2713;42.680;23.310;2024-01-25T06:12:54;95479.88;;;7.96;61.52
5380;BME280;2713;42.680;23.310;2024-01-25T06:15:20;95478.59;;;8.00;61.11
5380;BME280;2713;42.680;23.310;2024-01-25T06:17:47;95491.56;;;8.00;61.44
5380;BME280;2713;42.680;23.310;2024-01-25T06:20:14;95497.03;;;7.97;61.85
5380;BME280;2713;42.680;23.310;2024-01-25T06:22:41;95495.16;;;8.07;61.67
5380;BME280;2713;42.680;23.310;2024-01-25T06:25:09;95506.91;;;8.01;61.87
5380;BME280;2713;42.680;23.310;2024-01-25T06:27:36;95505.50;;;8.07;61.68
5380;BME280;2713;42.680;23.310;2024-01-25T06:30:04;95495.03;;;8.16;61.05
5380;BME280;2713;42.680;23.310;2024-01-25T06:32:31;95512.84;;;8.20;60.57
5380;BME280;2713;42.680;23.310;2024-01-25T06:34:57;95524.03;;;8.20;61.14
5380;BME280;2713;42.680;23.310;2024-01-25T06:37:24;95527.78;;;8.26;61.17
5380;BME280;2713;42.680;23.310;2024-01-25T06:39:51;95517.50;;;8.34;61.01
5380;BME280;2713;42.680;23.310;2024-01-25T06:42:19;95498.25;;;8.36;61.25
5380;BME280;2713;42.680;23.310;2024-01-25T06:44:46;95515.88;;;8.33;61.03
5380;BME280;2713;42.680;23.310;2024-01-25T06:47:12;95512.22;;;8.26;61.24
5380;BME280;2713;42.680;23.310;2024-01-25T06:49:39;95495.09;;;7.99;61.54
5380;BME280;2713;42.680;23.310;2024-01-25T06:52:06;95516.72;;;7.90;62.41
5380;BME280;2713;42.680;23.310;2024-01-25T06:54:33;95508.25;;;7.80;62.81
5380;BME280;2713;42.680;23.310;2024-01-25T06:57:00;95508.06;;;7.81;62.64
5380;BME280;2713;42.680;23.310;2024-01-25T06:59:28;95523.31;;;7.84;62.40
5380;BME280;2713;42.680;23.310;2024-01-25T07:01:55;95517.03;;;7.87;62.49
5380;BME280;2713;42.680;23.310;2024-01-25T07:04:21;95511.56;;;7.90;63.02
5380;BME280;2713;42.680;23.310;2024-01-25T07:06:48;95504.09;;;7.87;62.49
5380;BME280;2713;42.680;23.310;2024-01-25T07:09:15;95491.66;;;7.90;62.81
5380;BME280;2713;42.680;23.310;2024-01-25T07:11:41;95497.66;;;7.91;62.18
5380;BME280;2713;42.680;23.310;2024-01-25T07:14:08;95479.22;;;7.94;62.68
5380;BME280;2713;42.680;23.310;2024-01-25T07:16:36;95470.28;;;7.88;62.22
5380;BME280;2713;42.680;23.310;2024-01-25T07:19:03;95473.44;;;8.00;62.96
5380;BME280;2713;42.680;23.310;2024-01-25T07:21:30;95475.06;;;8.01;62.29
5380;BME280;2713;42.680;23.310;2024-01-25T07:23:58;95483.16;;;8.06;61.99
5380;BME280;2713;42.680;23.310;2024-01-25T07:26:25;95488.16;;;7.99;61.91
5380;BME280;2713;42.680;23.310;2024-01-25T07:28:52;95492.56;;;8.07;62.67
5380;BME280;2713;42.680;23.310;2024-01-25T07:31:23;95489.31;;;8.05;62.13
5380;BME280;2713;42.680;23.310;2024-01-25T07:33:51;95486.25;;;8.09;62.04
5380;BME280;2713;42.680;23.310;2024-01-25T07:36:18;95490.31;;;8.12;62.05
5380;BME280;2713;42.680;23.310;2024-01-25T07:38:45;95455.75;;;7.87;62.21
5380;BME280;2713;42.680;23.310;2024-01-25T07:41:13;95486.69;;;7.97;61.77
5380;BME280;2713;42.680;23.310;2024-01-25T07:43:40;95482.97;;;7.99;61.40
5380;BME280;2713;42.680;23.310;2024-01-25T07:46:08;95489.59;;;7.94;61.88
5380;BME280;2713;42.680;23.310;2024-01-25T07:48:35;95504.13;;;7.95;61.90
5380;BME280;2713;42.680;23.310;2024-01-25T07:51:10;95503.03;;;7.97;61.82
5380;BME280;2713;42.680;23.310;2024-01-25T07:53:37;95515.81;;;7.99;62.05
5380;BME280;2713;42.680;23.310;2024-01-25T07:56:06;95506.47;;;8.06;61.16
5380;BME280;2713;42.680;23.310;2024-01-25T07:58:33;95522.69;;;8.08;61.34
5380;BME280;2713;42.680;23.310;2024-01-25T08:01:02;95516.63;;;8.25;60.81
5380;BME280;2713;42.680;23.310;2024-01-25T08:03:29;95528.38;;;8.20;60.83
5380;BME280;2713;42.680;23.310;2024-01-25T08:05:56;95527.56;;;8.19;60.21
5380;BME280;2713;42.680;23.310;2024-01-25T08:08:24;95514.50;;;8.21;60.79
5380;BME280;2713;42.680;23.310;2024-01-25T08:10:51;95508.19;;;8.23;60.41
5380;BME280;2713;42.680;23.310;2024-01-25T08:13:17;95512.19;;;8.35;59.91
5380;BME280;2713;42.680;23.310;2024-01-25T08:15:44;95505.69;;;8.31;59.95
5380;BME280;2713;42.680;23.310;2024-01-25T08:18:11;95502.97;;;8.41;59.09
5380;BME280;2713;42.680;23.310;2024-01-25T08:20:38;95506.63;;;8.30;59.90
5380;BME280;2713;42.680;23.310;2024-01-25T08:23:05;95510.53;;;8.34;59.28
5380;BME280;2713;42.680;23.310;2024-01-25T08:25:35;95508.84;;;8.25;59.69
5380;BME280;2713;42.680;23.310;2024-01-25T08:28:02;95512.81;;;8.37;59.73
5380;BME280;2713;42.680;23.310;2024-01-25T08:30:28;95513.47;;;8.39;59.39
5380;BME280;2713;42.680;23.310;2024-01-25T08:32:55;95510.38;;;8.36;59.51
5380;BME280;2713;42.680;23.310;2024-01-25T08:35:22;95510.13;;;8.47;58.06
5380;BME280;2713;42.680;23.310;2024-01-25T08:37:49;95504.13;;;8.46;58.00
5380;BME280;2713;42.680;23.310;2024-01-25T08:40:16;95517.56;;;8.50;57.76
5380;BME280;2713;42.680;23.310;2024-01-25T08:42:44;95524.75;;;8.56;57.72
5380;BME280;2713;42.680;23.310;2024-01-25T08:45:11;95519.25;;;8.59;57.70
5380;BME280;2713;42.680;23.310;2024-01-25T08:47:39;95521.03;;;8.58;57.71
5380;BME280;2713;42.680;23.310;2024-01-25T08:50:07;95530.03;;;8.46;57.85
5380;BME280;2713;42.680;23.310;2024-01-25T08:52:36;95523.81;;;8.39;58.90
5380;BME280;2713;42.680;23.310;2024-01-25T08:55:03;95518.31;;;8.34;59.20
5380;BME280;2713;42.680;23.310;2024-01-25T08:57:30;95521.41;;;8.38;58.71
5380;BME280;2713;42.680;23.310;2024-01-25T08:59:58;95526.97;;;8.51;58.50
5380;BME280;2713;42.680;23.310;2024-01-25T09:02:26;95513.56;;;8.55;58.79
5380;BME280;2713;42.680;23.310;2024-01-25T09:04:55;95511.31;;;8.60;58.19
5380;BME280;2713;42.680;23.310;2024-01-25T09:07:22;95527.16;;;8.57;57.89
5380;BME280;2713;42.680;23.310;2024-01-25T09:09:49;95529.63;;;8.67;58.75
5380;BME280;2713;42.680;23.310;2024-01-25T09:12:15;95533.56;;;8.79;58.24
5380;BME280;2713;42.680;23.310;2024-01-25T09:14:42;95517.16;;;8.71;57.90
5380;BME280;2713;42.680;23.310;2024-01-25T09:17:11;95531.75;;;8.72;58.48
5380;BME280;2713;42.680;23.310;2024-01-25T09:19:39;95541.75;;;8.66;58.44
5380;BME280;2713;42.680;23.310;2024-01-25T09:22:06;95536.94;;;8.72;58.08
5380;BME280;2713;42.680;23.310;2024-01-25T09:24:35;95539.91;;;8.77;58.85
5380;BME280;2713;42.680;23.310;2024-01-25T09:27:05;95526.63;;;8.88;57.27
5380;BME280;2713;42.680;23.310;2024-01-25T09:29:32;95531.66;;;8.97;57.42
5380;BME280;2713;42.680;23.310;2024-01-25T09:31:58;95533.16;;;9.00;57.51
5380;BME280;2713;42.680;23.310;2024-01-25T09:34:27;95532.56;;;9.14;56.61
5380;BME280;2713;42.680;23.310;2024-01-25T09:36:53;95526.72;;;9.20;56.66
5380;BME280;2713;42.680;23.310;2024-01-25T09:39:20;95526.44;;;9.31;56.27
5380;BME280;2713;42.680;23.310;2024-01-25T09:41:47;95524.16;;;9.36;56.73
5380;BME280;2713;42.680;23.310;2024-01-25T09:44:14;95513.09;;;9.26;56.28
5380;BME280;2713;42.680;23.310;2024-01-25T09:46:43;95514.09;;;9.33;56.00
5380;BME280;2713;42.680;23.310;2024-01-25T09:49:11;95514.72;;;9.35;55.62
5380;BME280;2713;42.680;23.310;2024-01-25T09:51:42;95499.81;;;9.45;55.60
5380;BME280;2713;42.680;23.310;2024-01-25T09:54:09;95498.03;;;9.46;56.10
5380;BME280;2713;42.680;23.310;2024-01-25T09:56:36;95488.16;;;9.41;56.14
5380;BME280;2713;42.680;23.310;2024-01-25T09:59:03;95494.00;;;9.43;56.08
5380;BME280;2713;42.680;23.310;2024-01-25T10:01:31;95480.38;;;9.33;57.02
5380;BME280;2713;42.680;23.310;2024-01-25T10:03:58;95485.56;;;9.41;56.80
5380;BME280;2713;42.680;23.310;2024-01-25T10:06:25;95481.66;;;9.45;56.73
5380;BME280;2713;42.680;23.310;2024-01-25T10:08:53;95472.09;;;9.30;57.47
5380;BME280;2713;42.680;23.310;2024-01-25T10:11:22;95470.31;;;9.14;57.83
5380;BME280;2713;42.680;23.310;2024-01-25T10:13:50;95458.81;;;9.33;56.99
5380;BME280;2713;42.680;23.310;2024-01-25T10:16:18;95468.06;;;9.43;56.45
5380;BME280;2713;42.680;23.310;2024-01-25T10:18:46;95458.00;;;9.56;55.81
5380;BME280;2713;42.680;23.310;2024-01-25T10:21:14;95461.09;;;9.52;56.75
5380;BME280;2713;42.680;23.310;2024-01-25T10:23:44;95466.44;;;9.58;56.25
5380;BME280;2713;42.680;23.310;2024-01-25T10:26:12;95454.13;;;9.44;56.90
5380;BME280;2713;42.680;23.310;2024-01-25T10:28:39;95457.38;;;9.38;57.22
5380;BME280;2713;42.680;23.310;2024-01-25T10:31:05;95450.38;;;9.39;57.58
5380;BME280;2713;42.680;23.310;2024-01-25T10:33:33;95454.75;;;9.46;57.21
5380;BME280;2713;42.680;23.310;2024-01-25T10:36:01;95458.16;;;9.47;57.84
5380;BME280;2713;42.680;23.310;2024-01-25T10:38:29;95459.94;;;9.54;57.56
5380;BME280;2713;42.680;23.310;2024-01-25T10:40:59;95448.59;;;9.47;57.63
5380;BME280;2713;42.680;23.310;2024-01-25T10:43:27;95461.06;;;9.36;58.09
5380;BME280;2713;42.680;23.310;2024-01-25T10:45:56;95451.34;;;9.22;57.88
5380;BME280;2713;42.680;23.310;2024-01-25T10:48:24;95442.28;;;9.34;58.25
5380;BME280;2713;42.680;23.310;2024-01-25T10:50:51;95431.56;;;9.45;57.66
5380;BME280;2713;42.680;23.310;2024-01-25T10:53:18;95432.69;;;9.58;57.56
5380;BME280;2713;42.680;23.310;2024-01-25T10:55:46;95435.94;;;9.52;57.98
5380;BME280;2713;42.680;23.310;2024-01-25T10:58:13;95433.97;;;9.62;57.23
5380;BME280;2713;42.680;23.310;2024-01-25T11:00:42;95425.88;;;9.65;56.70
5380;BME280;2713;42.680;23.310;2024-01-25T11:03:15;95431.38;;;9.71;56.70
5380;BME280;2713;42.680;23.310;2024-01-25T11:05:42;95425.88;;;9.65;57.24
5380;BME280;2713;42.680;23.310;2024-01-25T11:08:17;95415.50;;;9.65;56.17
5380;BME280;2713;42.680;23.310;2024-01-25T11:10:48;95415.50;;;9.57;56.54
5380;BME280;2713;42.680;23.310;2024-01-25T11:13:23;95395.06;;;9.46;57.09
5380;BME280;2713;42.680;23.310;2024-01-25T11:15:52;95387.63;;;9.43;55.77
5380;BME280;2713;42.680;23.310;2024-01-25T11:18:19;95393.44;;;9.45;56.34
5380;BME280;2713;42.680;23.310;2024-01-25T11:20:47;95379.84;;;9.43;56.01
5380;BME280;2713;42.680;23.310;2024-01-25T11:23:16;95379.84;;;9.51;55.68
5380;BME280;2713;42.680;23.310;2024-01-25T11:25:44;95380.47;;;9.45;56.06
5380;BME280;2713;42.680;23.310;2024-01-25T11:28:14;95381.78;;;9.49;55.97
5380;BME280;2713;42.680;23.310;2024-01-25T11:30:41;95377.25;;;9.43;55.73
5380;BME280;2713;42.680;23.310;2024-01-25T11:33:11;95362.97;;;9.39;55.48
5380;BME280;2713;42.680;23.310;2024-01-25T11:35:39;95374.00;;;9.33;56.62
5380;BME280;2713;42.680;23.310;2024-01-25T11:38:07;95366.56;;;9.38;56.52
5380;BME280;2713;42.680;23.310;2024-01-25T11:40:34;95362.66;;;9.42;55.71
5380;BME280;2713;42.680;23.310;2024-01-25T11:43:01;95375.28;;;9.45;55.95
5380;BME280;2713;42.680;23.310;2024-01-25T11:45:28;95372.53;;;9.39;55.65
5380;BME280;2713;42.680;23.310;2024-01-25T11:47:55;95368.16;;;9.47;55.27
5380;BME280;2713;42.680;23.310;2024-01-25T11:50:23;95374.34;;;9.30;56.14
5380;BME280;2713;42.680;23.310;2024-01-25T11:52:50;95362.00;;;9.40;55.68
5380;BME280;2713;42.680;23.310;2024-01-25T11:55:17;95372.38;;;9.48;55.41
5380;BME280;2713;42.680;23.310;2024-01-25T11:57:44;95362.31;;;9.45;55.10
5380;BME280;2713;42.680;23.310;2024-01-25T12:00:14;95353.56;;;9.46;55.32
5380;BME280;2713;42.680;23.310;2024-01-25T12:02:41;95366.53;;;9.54;54.87
5380;BME280;2713;42.680;23.310;2024-01-25T12:05:10;95369.94;;;9.47;55.77
5380;BME280;2713;42.680;23.310;2024-01-25T12:07:39;95378.06;;;9.44;55.64
5380;BME280;2713;42.680;23.310;2024-01-25T12:10:07;95371.56;;;9.48;55.10
5380;BME280;2713;42.680;23.310;2024-01-25T12:12:35;95374.97;;;9.48;54.98
5380;BME280;2713;42.680;23.310;2024-01-25T12:15:04;95364.13;;;9.37;55.60
5380;BME280;2713;42.680;23.310;2024-01-25T12:17:33;95358.13;;;9.36;56.38
5380;BME280;2713;42.680;23.310;2024-01-25T12:20:02;95356.34;;;9.29;55.02
5380;BME280;2713;42.680;23.310;2024-01-25T12:22:32;95344.84;;;9.31;55.17
5380;BME280;2713;42.680;23.310;2024-01-25T12:25:01;95345.16;;;9.28;55.38
5380;BME280;2713;42.680;23.310;2024-01-25T12:27:28;95335.91;;;9.34;55.06
5380;BME280;2713;42.680;23.310;2024-01-25T12:29:56;95351.91;;;9.61;53.45
5380;BME280;2713;42.680;23.310;2024-01-25T12:32:23;95325.63;;;9.64;53.98
5380;BME280;2713;42.680;23.310;2024-01-25T12:34:53;95350.81;;;10.03;53.39
5380;BME280;2713;42.680;23.310;2024-01-25T12:37:21;95334.38;;;10.18;52.40
5380;BME280;2713;42.680;23.310;2024-01-25T12:39:48;95332.34;;;9.90;52.23
5380;BME280;2713;42.680;23.310;2024-01-25T12:42:16;95313.59;;;9.72;53.69
5380;BME280;2713;42.680;23.310;2024-01-25T12:44:43;95306.09;;;9.85;53.70
5380;BME280;2713;42.680;23.310;2024-01-25T12:47:11;95293.56;;;9.96;53.08
5380;BME280;2713;42.680;23.310;2024-01-25T12:49:40;95299.16;;;10.08;52.45
5380;BME280;2713;42.680;23.310;2024-01-25T12:52:07;95283.63;;;10.00;52.17
5380;BME280;2713;42.680;23.310;2024-01-25T12:54:34;95286.53;;;9.97;53.19
5380;BME280;2713;42.680;23.310;2024-01-25T12:57:01;95282.25;;;10.12;52.37
5380;BME280;2713;42.680;23.310;2024-01-25T12:59:29;95284.50;;;10.23;52.20
5380;BME280;2713;42.680;23.310;2024-01-25T13:01:56;95268.53;;;10.34;51.17
5380;BME280;2713;42.680;23.310;2024-01-25T13:04:23;95268.22;;;10.29;51.05
5380;BME280;2713;42.680;23.310;2024-01-25T13:06:52;95284.84;;;10.20;51.51
5380;BME280;2713;42.680;23.310;2024-01-25T13:09:20;95277.06;;;10.12;51.29
5380;BME280;2713;42.680;23.310;2024-01-25T13:11:46;95268.19;;;10.06;51.61
5380;BME280;2713;42.680;23.310;2024-01-25T13:14:14;95261.25;;;9.99;51.68
5380;BME280;2713;42.680;23.310;2024-01-25T13:16:42;95261.59;;;9.96;52.29
5380;BME280;2713;42.680;23.310;2024-01-25T13:19:09;95269.19;;;9.97;52.48
5380;BME280;2713;42.680;23.310;2024-01-25T13:21:37;95280.09;;;9.93;51.94
5380;BME280;2713;42.680;23.310;2024-01-25T13:24:05;95274.22;;;9.99;52.35
5380;BME280;2713;42.680;23.310;2024-01-25T13:26:32;95280.94;;;9.85;52.14
5380;BME280;2713;42.680;23.310;2024-01-25T13:28:59;95294.22;;;9.90;52.40